sensor_id;sensor_type;location;lat;lon;timestamp;temperature;humidity
22738;DHT22;11536;50.860;4.286;2023-06-04T00:02:16;18.00;76.80
22738;DHT22;11536;50.860;4.286;2023-06-04T00:04:42;17.90;76.60
22738;DHT22;11536;50.860;4.286;2023-06-04T00:07:08;17.90;76.70
22738;DHT22;11536;50.860;4.286;2023-06-04T00:09:33;17.80;76.60
22738;DHT22;11536;50.860;4.286;2023-06-04T00:11:59;17.80;77.00
22738;DHT22;11536;50.860;4.286;2023-06-04T00:14:25;17.80;77.00
22738;DHT22;11536;50.860;4.286;2023-06-04T00:16:50;17.80;77.10
22738;DHT22;11536;50.860;4.286;2023-06-04T00:19:16;17.80;77.00
22738;DHT22;11536;50.860;4.286;2023-06-04T00:21:41;17.70;77.10
22738;DHT22;11536;50.860;4.286;2023-06-04T00:24:07;17.70;77.20
22738;DHT22;11536;50.860;4.286;2023-06-04T00:26:33;17.70;77.20
22738;DHT22;11536;50.860;4.286;2023-06-04T00:28:59;17.70;77.30
22738;DHT22;11536;50.860;4.286;2023-06-04T00:31:25;17.70;78.20
22738;DHT22;11536;50.860;4.286;2023-06-04T00:33:51;17.60;77.30
22738;DHT22;11536;50.860;4.286;2023-06-04T00:36:17;17.60;77.30
22738;DHT22;11536;50.860;4.286;2023-06-04T00:38:43;17.50;77.30
22738;DHT22;11536;50.860;4.286;2023-06-04T00:41:08;17.50;78.10
22738;DHT22;11536;50.860;4.286;2023-06-04T00:43:34;17.40;77.30
22738;DHT22;11536;50.860;4.286;2023-06-04T00:46:01;17.40;77.80
22738;DHT22;11536;50.860;4.286;2023-06-04T00:48:29;17.40;77.80
22738;DHT22;11536;50.860;4.286;2023-06-04T00:50:56;17.30;77.60
22738;DHT22;11536;50.860;4.286;2023-06-04T00:53:23;17.30;77.50
22738;DHT22;11536;50.860;4.286;2023-06-04T00:55:50;17.30;77.70
22738;DHT22;11536;50.860;4.286;2023-06-04T00:58:15;17.30;77.90
22738;DHT22;11536;50.860;4.286;2023-06-04T01:00:43;17.30;77.90
22738;DHT22;11536;50.860;4.286;2023-06-04T01:03:14;17.30;78.00
22738;DHT22;11536;50.860;4.286;2023-06-04T01:05:54;17.20;78.10
22738;DHT22;11536;50.860;4.286;2023-06-04T01:08:23;17.20;78.20
22738;DHT22;11536;50.860;4.286;2023-06-04T01:10:55;17.10;78.20
22738;DHT22;11536;50.860;4.286;2023-06-04T01:13:22;17.10;78.30
22738;DHT22;11536;50.860;4.286;2023-06-04T01:15:48;17.00;78.20
22738;DHT22;11536;50.860;4.286;2023-06-04T01:18:21;17.00;78.20
22738;DHT22;11536;50.860;4.286;2023-06-04T01:20:58;16.90;78.50
22738;DHT22;11536;50.860;4.286;2023-06-04T01:26:30;16.80;78.50
22738;DHT22;11536;50.860;4.286;2023-06-04T01:28:57;16.80;78.50
22738;DHT22;11536;50.860;4.286;2023-06-04T01:31:24;16.80;78.90
22738;DHT22;11536;50.860;4.286;2023-06-04T01:33:54;16.70;78.70
22738;DHT22;11536;50.860;4.286;2023-06-04T01:36:23;16.70;78.90
22738;DHT22;11536;50.860;4.286;2023-06-04T01:38:49;16.60;79.10
22738;DHT22;11536;50.860;4.286;2023-06-04T01:41:14;16.50;79.50
22738;DHT22;11536;50.860;4.286;2023-06-04T01:43:40;16.40;79.00
22738;DHT22;11536;50.860;4.286;2023-06-04T01:46:06;16.50;79.20
22738;DHT22;11536;50.860;4.286;2023-06-04T01:48:31;16.40;80.00
22738;DHT22;11536;50.860;4.286;2023-06-04T01:50:57;16.30;79.90
22738;DHT22;11536;50.860;4.286;2023-06-04T01:53:23;16.30;79.90
22738;DHT22;11536;50.860;4.286;2023-06-04T01:55:49;16.20;80.00
22738;DHT22;11536;50.860;4.286;2023-06-04T01:58:18;16.20;79.90
22738;DHT22;11536;50.860;4.286;2023-06-04T02:00:55;16.20;80.10
22738;DHT22;11536;50.860;4.286;2023-06-04T02:03:26;16.10;80.20
22738;DHT22;11536;50.860;4.286;2023-06-04T02:05:51;16.10;81.70
22738;DHT22;11536;50.860;4.286;2023-06-04T02:08:17;15.90;81.20
22738;DHT22;11536;50.860;4.286;2023-06-04T02:10:47;15.90;80.90
22738;DHT22;11536;50.860;4.286;2023-06-04T02:13:13;15.90;80.90
22738;DHT22;11536;50.860;4.286;2023-06-04T02:15:39;15.90;81.70
22738;DHT22;11536;50.860;4.286;2023-06-04T02:18:13;15.90;81.90
22738;DHT22;11536;50.860;4.286;2023-06-04T02:20:41;15.90;81.30
22738;DHT22;11536;50.860;4.286;2023-06-04T02:23:07;15.80;81.90
22738;DHT22;11536;50.860;4.286;2023-06-04T02:25:32;15.80;82.30
22738;DHT22;11536;50.860;4.286;2023-06-04T02:27:58;15.70;83.20
22738;DHT22;11536;50.860;4.286;2023-06-04T02:30:23;15.60;83.50
22738;DHT22;11536;50.860;4.286;2023-06-04T02:32:49;15.60;83.00
22738;DHT22;11536;50.860;4.286;2023-06-04T02:35:16;15.60;84.20
22738;DHT22;11536;50.860;4.286;2023-06-04T02:37:43;15.50;84.60
22738;DHT22;11536;50.860;4.286;2023-06-04T02:40:10;15.50;84.40
22738;DHT22;11536;50.860;4.286;2023-06-04T02:42:35;15.40;85.10
22738;DHT22;11536;50.860;4.286;2023-06-04T02:45:01;15.40;84.80
22738;DHT22;11536;50.860;4.286;2023-06-04T02:47:27;15.40;85.30
22738;DHT22;11536;50.860;4.286;2023-06-04T02:49:53;15.30;85.10
22738;DHT22;11536;50.860;4.286;2023-06-04T02:52:18;15.30;85.30
22738;DHT22;11536;50.860;4.286;2023-06-04T02:54:44;15.30;85.30
22738;DHT22;11536;50.860;4.286;2023-06-04T02:57:09;15.40;85.40
22738;DHT22;11536;50.860;4.286;2023-06-04T02:59:35;15.30;86.30
22738;DHT22;11536;50.860;4.286;2023-06-04T03:02:02;15.30;86.70
22738;DHT22;11536;50.860;4.286;2023-06-04T03:04:28;15.20;86.30
22738;DHT22;11536;50.860;4.286;2023-06-04T03:07:02;15.20;87.40
22738;DHT22;11536;50.860;4.286;2023-06-04T03:09:29;15.10;86.50
22738;DHT22;11536;50.860;4.286;2023-06-04T03:11:59;15.10;87.10
22738;DHT22;11536;50.860;4.286;2023-06-04T03:14:25;15.10;87.00
22738;DHT22;11536;50.860;4.286;2023-06-04T03:17:00;15.00;87.90
22738;DHT22;11536;50.860;4.286;2023-06-04T03:19:27;15.10;87.80
22738;DHT22;11536;50.860;4.286;2023-06-04T03:21:53;15.00;88.30
22738;DHT22;11536;50.860;4.286;2023-06-04T03:24:19;15.10;87.60
22738;DHT22;11536;50.860;4.286;2023-06-04T03:26:45;15.00;88.90
22738;DHT22;11536;50.860;4.286;2023-06-04T03:29:10;15.00;89.40
22738;DHT22;11536;50.860;4.286;2023-06-04T03:31:37;14.90;88.30
22738;DHT22;11536;50.860;4.286;2023-06-04T03:34:02;14.90;88.60
22738;DHT22;11536;50.860;4.286;2023-06-04T03:36:30;14.90;88.50
22738;DHT22;11536;50.860;4.286;2023-06-04T03:39:03;14.90;88.60
22738;DHT22;11536;50.860;4.286;2023-06-04T03:41:30;14.90;89.00
22738;DHT22;11536;50.860;4.286;2023-06-04T03:43:56;14.90;90.00
22738;DHT22;11536;50.860;4.286;2023-06-04T03:46:21;14.80;89.50
22738;DHT22;11536;50.860;4.286;2023-06-04T03:48:47;14.80;89.30
22738;DHT22;11536;50.860;4.286;2023-06-04T03:51:12;14.80;89.10
22738;DHT22;11536;50.860;4.286;2023-06-04T03:53:38;14.80;89.50
22738;DHT22;11536;50.860;4.286;2023-06-04T03:56:04;14.90;89.20
22738;DHT22;11536;50.860;4.286;2023-06-04T03:58:29;14.80;89.20
22738;DHT22;11536;50.860;4.286;2023-06-04T04:00:55;14.80;90.20
22738;DHT22;11536;50.860;4.286;2023-06-04T04:03:21;14.80;90.10
22738;DHT22;11536;50.860;4.286;2023-06-04T04:05:47;14.80;90.40
22738;DHT22;11536;50.860;4.286;2023-06-04T04:08:12;14.70;90.70
22738;DHT22;11536;50.860;4.286;2023-06-04T04:10:41;14.70;90.40
22738;DHT22;11536;50.860;4.286;2023-06-04T04:13:07;14.60;90.50
22738;DHT22;11536;50.860;4.286;2023-06-04T04:15:32;14.70;90.70
22738;DHT22;11536;50.860;4.286;2023-06-04T04:17:58;14.60;90.90
22738;DHT22;11536;50.860;4.286;2023-06-04T04:20:24;14.60;90.70
22738;DHT22;11536;50.860;4.286;2023-06-04T04:22:50;14.70;90.30
22738;DHT22;11536;50.860;4.286;2023-06-04T04:25:16;14.70;90.50
22738;DHT22;11536;50.860;4.286;2023-06-04T04:27:41;14.70;91.10
22738;DHT22;11536;50.860;4.286;2023-06-04T04:30:07;14.70;90.80
22738;DHT22;11536;50.860;4.286;2023-06-04T04:32:33;14.60;91.30
22738;DHT22;11536;50.860;4.286;2023-06-04T04:34:59;14.60;91.20
22738;DHT22;11536;50.860;4.286;2023-06-04T04:37:25;14.60;91.30
22738;DHT22;11536;50.860;4.286;2023-06-04T04:39:51;14.60;91.70
22738;DHT22;11536;50.860;4.286;2023-06-04T04:42:18;14.60;91.80
22738;DHT22;11536;50.860;4.286;2023-06-04T04:44:44;14.50;91.70
22738;DHT22;11536;50.860;4.286;2023-06-04T04:47:16;14.60;91.60
22738;DHT22;11536;50.860;4.286;2023-06-04T04:49:41;14.60;91.40
22738;DHT22;11536;50.860;4.286;2023-06-04T04:52:07;14.60;91.70
22738;DHT22;11536;50.860;4.286;2023-06-04T04:54:33;14.60;91.60
22738;DHT22;11536;50.860;4.286;2023-06-04T04:56:58;14.70;91.40
22738;DHT22;11536;50.860;4.286;2023-06-04T04:59:24;14.70;91.40
22738;DHT22;11536;50.860;4.286;2023-06-04T05:01:49;14.70;91.10
22738;DHT22;11536;50.860;4.286;2023-06-04T05:04:15;14.70;91.70
22738;DHT22;11536;50.860;4.286;2023-06-04T05:06:40;14.80;91.90
22738;DHT22;11536;50.860;4.286;2023-06-04T05:09:06;14.80;91.50
22738;DHT22;11536;50.860;4.286;2023-06-04T05:11:32;14.80;91.80
22738;DHT22;11536;50.860;4.286;2023-06-04T05:13:58;14.80;91.70
22738;DHT22;11536;50.860;4.286;2023-06-04T05:16:24;14.90;91.50
22738;DHT22;11536;50.860;4.286;2023-06-04T05:18:50;14.90;91.90
22738;DHT22;11536;50.860;4.286;2023-06-04T05:21:17;14.90;91.90
22738;DHT22;11536;50.860;4.286;2023-06-04T05:23:43;14.90;91.90
22738;DHT22;11536;50.860;4.286;2023-06-04T05:26:13;15.00;91.90
22738;DHT22;11536;50.860;4.286;2023-06-04T05:28:39;15.00;92.00
22738;DHT22;11536;50.860;4.286;2023-06-04T05:31:08;15.00;91.70
22738;DHT22;11536;50.860;4.286;2023-06-04T05:33:34;15.10;92.20
22738;DHT22;11536;50.860;4.286;2023-06-04T05:36:00;15.10;91.90
22738;DHT22;11536;50.860;4.286;2023-06-04T05:38:26;15.10;92.00
22738;DHT22;11536;50.860;4.286;2023-06-04T05:40:54;15.20;92.60
22738;DHT22;11536;50.860;4.286;2023-06-04T05:43:20;15.10;92.60
22738;DHT22;11536;50.860;4.286;2023-06-04T05:45:46;15.10;92.40
22738;DHT22;11536;50.860;4.286;2023-06-04T05:48:12;15.20;92.60
22738;DHT22;11536;50.860;4.286;2023-06-04T05:50:38;15.10;92.40
22738;DHT22;11536;50.860;4.286;2023-06-04T05:53:03;15.20;92.70
22738;DHT22;11536;50.860;4.286;2023-06-04T05:55:29;15.30;92.30
22738;DHT22;11536;50.860;4.286;2023-06-04T05:57:55;15.40;92.50
22738;DHT22;11536;50.860;4.286;2023-06-04T06:00:22;15.40;92.30
22738;DHT22;11536;50.860;4.286;2023-06-04T06:02:50;15.50;92.30
22738;DHT22;11536;50.860;4.286;2023-06-04T06:05:17;15.50;92.30
22738;DHT22;11536;50.860;4.286;2023-06-04T06:07:42;15.60;92.50
22738;DHT22;11536;50.860;4.286;2023-06-04T06:10:09;15.60;92.30
22738;DHT22;11536;50.860;4.286;2023-06-04T06:12:34;15.70;92.30
22738;DHT22;11536;50.860;4.286;2023-06-04T06:15:00;15.70;92.40
22738;DHT22;11536;50.860;4.286;2023-06-04T06:17:26;15.80;92.30
22738;DHT22;11536;50.860;4.286;2023-06-04T06:19:52;15.90;92.90
22738;DHT22;11536;50.860;4.286;2023-06-04T06:22:18;16.00;92.50
22738;DHT22;11536;50.860;4.286;2023-06-04T06:24:43;16.20;92.20
22738;DHT22;11536;50.860;4.286;2023-06-04T06:27:10;16.30;92.10
22738;DHT22;11536;50.860;4.286;2023-06-04T06:29:36;16.40;91.90
22738;DHT22;11536;50.860;4.286;2023-06-04T06:32:02;16.40;91.90
22738;DHT22;11536;50.860;4.286;2023-06-04T06:34:28;16.40;91.80
22738;DHT22;11536;50.860;4.286;2023-06-04T06:36:53;16.50;92.00
22738;DHT22;11536;50.860;4.286;2023-06-04T06:39:19;16.50;91.90
22738;DHT22;11536;50.860;4.286;2023-06-04T06:41:45;16.50;91.90
22738;DHT22;11536;50.860;4.286;2023-06-04T06:44:11;16.60;91.90
22738;DHT22;11536;50.860;4.286;2023-06-04T06:46:36;16.60;91.90
22738;DHT22;11536;50.860;4.286;2023-06-04T06:49:02;16.60;91.90
22738;DHT22;11536;50.860;4.286;2023-06-04T06:51:27;16.60;91.80
22738;DHT22;11536;50.860;4.286;2023-06-04T06:53:53;16.60;91.80
22738;DHT22;11536;50.860;4.286;2023-06-04T06:56:19;16.70;91.90
22738;DHT22;11536;50.860;4.286;2023-06-04T06:58:47;16.70;91.90
22738;DHT22;11536;50.860;4.286;2023-06-04T07:01:13;16.70;91.80
22738;DHT22;11536;50.860;4.286;2023-06-04T07:03:39;16.80;91.80
22738;DHT22;11536;50.860;4.286;2023-06-04T07:06:07;16.80;91.90
22738;DHT22;11536;50.860;4.286;2023-06-04T07:08:33;16.90;91.90
22738;DHT22;11536;50.860;4.286;2023-06-04T07:10:59;17.00;91.90
22738;DHT22;11536;50.860;4.286;2023-06-04T07:13:26;17.10;91.90
22738;DHT22;11536;50.860;4.286;2023-06-04T07:15:52;17.10;91.90
22738;DHT22;11536;50.860;4.286;2023-06-04T07:18:18;17.20;91.90
22738;DHT22;11536;50.860;4.286;2023-06-04T07:20:44;17.20;91.90
22738;DHT22;11536;50.860;4.286;2023-06-04T07:23:09;17.30;92.00
22738;DHT22;11536;50.860;4.286;2023-06-04T07:25:35;17.30;91.80
22738;DHT22;11536;50.860;4.286;2023-06-04T07:28:01;17.40;91.90
22738;DHT22;11536;50.860;4.286;2023-06-04T07:30:31;17.40;91.80
22738;DHT22;11536;50.860;4.286;2023-06-04T07:33:05;17.50;91.80
22738;DHT22;11536;50.860;4.286;2023-06-04T07:35:31;17.60;91.80
22738;DHT22;11536;50.860;4.286;2023-06-04T07:37:57;17.70;91.80
22738;DHT22;11536;50.860;4.286;2023-06-04T07:40:23;17.80;91.70
22738;DHT22;11536;50.860;4.286;2023-06-04T07:42:48;17.80;91.60
22738;DHT22;11536;50.860;4.286;2023-06-04T07:45:15;17.80;91.40
22738;DHT22;11536;50.860;4.286;2023-06-04T07:47:41;17.80;91.40
22738;DHT22;11536;50.860;4.286;2023-06-04T07:50:07;17.90;91.40
22738;DHT22;11536;50.860;4.286;2023-06-04T07:52:33;18.00;91.40
22738;DHT22;11536;50.860;4.286;2023-06-04T07:54:59;18.10;91.50
22738;DHT22;11536;50.860;4.286;2023-06-04T07:57:25;18.20;91.50
22738;DHT22;11536;50.860;4.286;2023-06-04T07:59:51;18.20;91.30
22738;DHT22;11536;50.860;4.286;2023-06-04T08:02:17;18.30;91.00
22738;DHT22;11536;50.860;4.286;2023-06-04T08:04:43;18.30;90.70
22738;DHT22;11536;50.860;4.286;2023-06-04T08:07:09;18.40;91.00
22738;DHT22;11536;50.860;4.286;2023-06-04T08:09:35;18.40;91.00
22738;DHT22;11536;50.860;4.286;2023-06-04T08:12:00;18.50;90.90
22738;DHT22;11536;50.860;4.286;2023-06-04T08:14:27;18.60;91.10
22738;DHT22;11536;50.860;4.286;2023-06-04T08:16:53;18.60;90.60
22738;DHT22;11536;50.860;4.286;2023-06-04T08:19:19;18.70;90.70
22738;DHT22;11536;50.860;4.286;2023-06-04T08:21:45;18.70;90.20
22738;DHT22;11536;50.860;4.286;2023-06-04T08:24:12;18.80;90.40
22738;DHT22;11536;50.860;4.286;2023-06-04T08:26:38;18.90;90.30
22738;DHT22;11536;50.860;4.286;2023-06-04T08:29:04;18.90;90.30
22738;DHT22;11536;50.860;4.286;2023-06-04T08:31:30;19.00;90.10
22738;DHT22;11536;50.860;4.286;2023-06-04T08:33:55;19.10;90.20
22738;DHT22;11536;50.860;4.286;2023-06-04T08:36:21;19.10;89.90
22738;DHT22;11536;50.860;4.286;2023-06-04T08:38:47;19.30;90.00
22738;DHT22;11536;50.860;4.286;2023-06-04T08:42:03;19.30;89.80
22738;DHT22;11536;50.860;4.286;2023-06-04T08:44:05;19.40;90.50
22738;DHT22;11536;50.860;4.286;2023-06-04T08:46:32;19.40;90.00
22738;DHT22;11536;50.860;4.286;2023-06-04T08:49:00;19.50;89.90
22738;DHT22;11536;50.860;4.286;2023-06-04T08:51:28;19.60;89.60
22738;DHT22;11536;50.860;4.286;2023-06-04T08:53:54;19.70;89.50
22738;DHT22;11536;50.860;4.286;2023-06-04T08:56:22;19.70;89.60
22738;DHT22;11536;50.860;4.286;2023-06-04T08:58:48;19.80;89.40
22738;DHT22;11536;50.860;4.286;2023-06-04T09:01:14;19.90;89.10
22738;DHT22;11536;50.860;4.286;2023-06-04T09:03:41;19.90;89.30
22738;DHT22;11536;50.860;4.286;2023-06-04T09:09:20;20.10;89.10
22738;DHT22;11536;50.860;4.286;2023-06-04T09:11:52;20.10;88.80
22738;DHT22;11536;50.860;4.286;2023-06-04T09:14:18;20.10;88.70
22738;DHT22;11536;50.860;4.286;2023-06-04T09:16:52;20.20;88.80
22738;DHT22;11536;50.860;4.286;2023-06-04T09:19:19;20.30;89.50
22738;DHT22;11536;50.860;4.286;2023-06-04T09:24:18;20.40;88.10
22738;DHT22;11536;50.860;4.286;2023-06-04T09:26:43;20.50;87.00
22738;DHT22;11536;50.860;4.286;2023-06-04T09:29:09;20.50;87.70
22738;DHT22;11536;50.860;4.286;2023-06-04T09:31:34;20.50;86.70
22738;DHT22;11536;50.860;4.286;2023-06-04T09:34:04;20.60;86.40
22738;DHT22;11536;50.860;4.286;2023-06-04T09:36:31;20.60;87.40
22738;DHT22;11536;50.860;4.286;2023-06-04T09:38:57;20.60;85.60
22738;DHT22;11536;50.860;4.286;2023-06-04T09:41:25;20.60;87.00
22738;DHT22;11536;50.860;4.286;2023-06-04T09:44:00;20.70;86.60
22738;DHT22;11536;50.860;4.286;2023-06-04T09:46:28;20.80;85.70
22738;DHT22;11536;50.860;4.286;2023-06-04T09:49:20;20.90;86.40
22738;DHT22;11536;50.860;4.286;2023-06-04T09:51:57;20.90;86.20
22738;DHT22;11536;50.860;4.286;2023-06-04T09:54:37;21.00;87.40
22738;DHT22;11536;50.860;4.286;2023-06-04T09:57:05;21.10;86.70
22738;DHT22;11536;50.860;4.286;2023-06-04T09:59:33;21.20;85.70
22738;DHT22;11536;50.860;4.286;2023-06-04T10:02:03;21.20;85.80
22738;DHT22;11536;50.860;4.286;2023-06-04T10:04:29;21.30;85.90
22738;DHT22;11536;50.860;4.286;2023-06-04T10:06:56;21.20;84.30
22738;DHT22;11536;50.860;4.286;2023-06-04T10:09:22;21.30;83.70
22738;DHT22;11536;50.860;4.286;2023-06-04T10:11:54;21.30;83.90
22738;DHT22;11536;50.860;4.286;2023-06-04T10:14:23;21.30;84.10
22738;DHT22;11536;50.860;4.286;2023-06-04T10:16:51;21.30;83.30
22738;DHT22;11536;50.860;4.286;2023-06-04T10:19:30;21.30;83.60
22738;DHT22;11536;50.860;4.286;2023-06-04T10:21:57;21.40;84.40
22738;DHT22;11536;50.860;4.286;2023-06-04T10:24:23;21.50;85.10
22738;DHT22;11536;50.860;4.286;2023-06-04T10:26:53;21.50;82.70
22738;DHT22;11536;50.860;4.286;2023-06-04T10:29:20;21.50;81.80
22738;DHT22;11536;50.860;4.286;2023-06-04T10:31:47;21.50;83.60
22738;DHT22;11536;50.860;4.286;2023-06-04T10:34:12;21.50;83.40
22738;DHT22;11536;50.860;4.286;2023-06-04T10:36:45;21.60;82.90
22738;DHT22;11536;50.860;4.286;2023-06-04T10:39:11;21.60;82.20
22738;DHT22;11536;50.860;4.286;2023-06-04T10:41:37;21.60;83.00
22738;DHT22;11536;50.860;4.286;2023-06-04T10:44:02;21.70;83.10
22738;DHT22;11536;50.860;4.286;2023-06-04T10:46:38;21.70;82.90
22738;DHT22;11536;50.860;4.286;2023-06-04T10:49:05;21.80;82.20
22738;DHT22;11536;50.860;4.286;2023-06-04T10:51:32;21.80;82.60
22738;DHT22;11536;50.860;4.286;2023-06-04T10:53:59;21.90;81.90
22738;DHT22;11536;50.860;4.286;2023-06-04T10:56:32;21.90;82.30
22738;DHT22;11536;50.860;4.286;2023-06-04T10:58:59;21.90;82.30
22738;DHT22;11536;50.860;4.286;2023-06-04T11:01:26;21.90;81.60
22738;DHT22;11536;50.860;4.286;2023-06-04T11:03:52;22.00;81.20
22738;DHT22;11536;50.860;4.286;2023-06-04T11:06:18;22.00;81.20
22738;DHT22;11536;50.860;4.286;2023-06-04T11:08:44;22.10;81.70
22738;DHT22;11536;50.860;4.286;2023-06-04T11:11:15;22.10;80.40
22738;DHT22;11536;50.860;4.286;2023-06-04T11:13:41;22.10;79.40
22738;DHT22;11536;50.860;4.286;2023-06-04T11:16:18;22.10;80.00
22738;DHT22;11536;50.860;4.286;2023-06-04T11:18:53;22.10;77.80
22738;DHT22;11536;50.860;4.286;2023-06-04T11:21:19;22.10;78.70
22738;DHT22;11536;50.860;4.286;2023-06-04T11:23:45;22.20;80.00
22738;DHT22;11536;50.860;4.286;2023-06-04T11:26:10;22.30;81.10
22738;DHT22;11536;50.860;4.286;2023-06-04T11:28:36;22.40;81.20
22738;DHT22;11536;50.860;4.286;2023-06-04T11:31:03;22.40;80.50
22738;DHT22;11536;50.860;4.286;2023-06-04T11:33:30;22.50;80.30
22738;DHT22;11536;50.860;4.286;2023-06-04T11:35:56;22.50;80.90
22738;DHT22;11536;50.860;4.286;2023-06-04T11:38:21;22.60;80.30
22738;DHT22;11536;50.860;4.286;2023-06-04T11:41:01;22.70;80.00
22738;DHT22;11536;50.860;4.286;2023-06-04T11:43:28;22.70;81.00
22738;DHT22;11536;50.860;4.286;2023-06-04T11:45:54;22.80;81.40
22738;DHT22;11536;50.860;4.286;2023-06-04T11:48:20;22.90;79.60
22738;DHT22;11536;50.860;4.286;2023-06-04T11:50:46;22.90;79.50
22738;DHT22;11536;50.860;4.286;2023-06-04T11:53:11;23.00;79.60
22738;DHT22;11536;50.860;4.286;2023-06-04T11:55:39;23.00;79.60
22738;DHT22;11536;50.860;4.286;2023-06-04T11:58:04;23.10;80.10
22738;DHT22;11536;50.860;4.286;2023-06-04T12:00:31;23.10;78.80
22738;DHT22;11536;50.860;4.286;2023-06-04T12:02:56;23.20;79.30
22738;DHT22;11536;50.860;4.286;2023-06-04T12:05:29;23.20;77.80
22738;DHT22;11536;50.860;4.286;2023-06-04T12:08:04;23.30;77.80
22738;DHT22;11536;50.860;4.286;2023-06-04T12:10:40;23.30;78.50
22738;DHT22;11536;50.860;4.286;2023-06-04T12:13:07;23.40;77.80
22738;DHT22;11536;50.860;4.286;2023-06-04T12:15:33;23.50;77.00
22738;DHT22;11536;50.860;4.286;2023-06-04T12:17:58;23.50;76.20
22738;DHT22;11536;50.860;4.286;2023-06-04T12:20:35;23.50;76.50
22738;DHT22;11536;50.860;4.286;2023-06-04T12:23:02;23.50;75.90
22738;DHT22;11536;50.860;4.286;2023-06-04T12:25:29;23.50;77.30
22738;DHT22;11536;50.860;4.286;2023-06-04T12:27:55;23.60;77.00
22738;DHT22;11536;50.860;4.286;2023-06-04T12:30:22;23.60;78.20
22738;DHT22;11536;50.860;4.286;2023-06-04T12:32:48;23.70;77.80
22738;DHT22;11536;50.860;4.286;2023-06-04T12:35:13;23.70;76.00
22738;DHT22;11536;50.860;4.286;2023-06-04T12:37:41;23.90;79.00
22738;DHT22;11536;50.860;4.286;2023-06-04T12:40:14;23.90;77.90
22738;DHT22;11536;50.860;4.286;2023-06-04T12:42:42;24.00;77.70
22738;DHT22;11536;50.860;4.286;2023-06-04T12:45:23;24.00;74.70
22738;DHT22;11536;50.860;4.286;2023-06-04T12:48:10;24.00;74.80
22738;DHT22;11536;50.860;4.286;2023-06-04T12:50:40;24.00;75.80
22738;DHT22;11536;50.860;4.286;2023-06-04T12:53:06;24.10;75.80
22738;DHT22;11536;50.860;4.286;2023-06-04T12:55:36;24.10;74.90
22738;DHT22;11536;50.860;4.286;2023-06-04T12:58:14;24.10;76.90
22738;DHT22;11536;50.860;4.286;2023-06-04T13:00:43;24.40;77.70
22738;DHT22;11536;50.860;4.286;2023-06-04T13:03:09;24.50;77.10
22738;DHT22;11536;50.860;4.286;2023-06-04T13:05:40;24.50;75.60
22738;DHT22;11536;50.860;4.286;2023-06-04T13:08:06;24.50;75.30
22738;DHT22;11536;50.860;4.286;2023-06-04T13:10:35;24.60;75.60
22738;DHT22;11536;50.860;4.286;2023-06-04T13:13:15;24.60;75.10
22738;DHT22;11536;50.860;4.286;2023-06-04T13:15:44;24.60;75.10
22738;DHT22;11536;50.860;4.286;2023-06-04T13:18:14;24.70;75.90
22738;DHT22;11536;50.860;4.286;2023-06-04T13:23:34;24.80;74.90
22738;DHT22;11536;50.860;4.286;2023-06-04T13:26:06;24.80;75.80
22738;DHT22;11536;50.860;4.286;2023-06-04T13:28:31;24.80;75.60
22738;DHT22;11536;50.860;4.286;2023-06-04T13:30:57;24.70;74.10
22738;DHT22;11536;50.860;4.286;2023-06-04T13:33:22;24.70;73.50
22738;DHT22;11536;50.860;4.286;2023-06-04T13:35:48;24.70;73.90
22738;DHT22;11536;50.860;4.286;2023-06-04T13:38:15;24.70;73.40
22738;DHT22;11536;50.860;4.286;2023-06-04T13:40:41;24.70;72.80
22738;DHT22;11536;50.860;4.286;2023-06-04T13:43:08;24.70;72.50
22738;DHT22;11536;50.860;4.286;2023-06-04T13:45:34;24.70;72.30
22738;DHT22;11536;50.860;4.286;2023-06-04T13:48:00;24.70;71.50
22738;DHT22;11536;50.860;4.286;2023-06-04T13:50:31;24.70;72.90
22738;DHT22;11536;50.860;4.286;2023-06-04T13:52:56;24.80;72.40
22738;DHT22;11536;50.860;4.286;2023-06-04T13:55:22;24.80;72.00
22738;DHT22;11536;50.860;4.286;2023-06-04T13:57:52;24.80;70.80
22738;DHT22;11536;50.860;4.286;2023-06-04T14:00:18;24.70;71.90
22738;DHT22;11536;50.860;4.286;2023-06-04T14:02:43;24.70;71.50
22738;DHT22;11536;50.860;4.286;2023-06-04T14:05:15;24.80;71.80
22738;DHT22;11536;50.860;4.286;2023-06-04T14:07:42;24.80;72.00
22738;DHT22;11536;50.860;4.286;2023-06-04T14:10:09;24.80;69.70
22738;DHT22;11536;50.860;4.286;2023-06-04T14:12:36;24.70;70.20
22738;DHT22;11536;50.860;4.286;2023-06-04T14:15:07;24.70;70.30
22738;DHT22;11536;50.860;4.286;2023-06-04T14:17:36;24.70;70.80
22738;DHT22;11536;50.860;4.286;2023-06-04T14:20:03;24.80;72.50
22738;DHT22;11536;50.860;4.286;2023-06-04T14:22:33;24.90;71.70
22738;DHT22;11536;50.860;4.286;2023-06-04T14:25:01;24.90;72.50
22738;DHT22;11536;50.860;4.286;2023-06-04T14:27:28;25.00;72.20
22738;DHT22;11536;50.860;4.286;2023-06-04T14:29:53;25.00;71.60
22738;DHT22;11536;50.860;4.286;2023-06-04T14:32:19;25.00;71.20
22738;DHT22;11536;50.860;4.286;2023-06-04T14:34:44;24.90;70.70
22738;DHT22;11536;50.860;4.286;2023-06-04T14:37:10;24.90;70.70
22738;DHT22;11536;50.860;4.286;2023-06-04T14:39:36;24.80;70.20
22738;DHT22;11536;50.860;4.286;2023-06-04T14:42:02;24.80;70.20
22738;DHT22;11536;50.860;4.286;2023-06-04T14:44:28;24.80;69.60
22738;DHT22;11536;50.860;4.286;2023-06-04T14:46:53;24.80;68.90
22738;DHT22;11536;50.860;4.286;2023-06-04T14:49:19;24.80;69.00
22738;DHT22;11536;50.860;4.286;2023-06-04T14:51:45;24.80;70.00
22738;DHT22;11536;50.860;4.286;2023-06-04T14:54:12;24.80;71.50
22738;DHT22;11536;50.860;4.286;2023-06-04T14:56:38;24.90;71.10
22738;DHT22;11536;50.860;4.286;2023-06-04T14:59:06;24.80;69.30
22738;DHT22;11536;50.860;4.286;2023-06-04T15:01:35;24.80;70.70
22738;DHT22;11536;50.860;4.286;2023-06-04T15:04:02;24.80;69.30
22738;DHT22;11536;50.860;4.286;2023-06-04T15:06:28;24.90;69.20
22738;DHT22;11536;50.860;4.286;2023-06-04T15:08:54;24.90;69.80
22738;DHT22;11536;50.860;4.286;2023-06-04T15:11:19;24.90;70.30
22738;DHT22;11536;50.860;4.286;2023-06-04T15:13:45;24.90;71.10
22738;DHT22;11536;50.860;4.286;2023-06-04T15:16:10;24.90;68.60
22738;DHT22;11536;50.860;4.286;2023-06-04T15:18:36;24.80;69.80
22738;DHT22;11536;50.860;4.286;2023-06-04T15:21:02;24.90;68.70
22738;DHT22;11536;50.860;4.286;2023-06-04T15:23:28;24.90;67.90
22738;DHT22;11536;50.860;4.286;2023-06-04T15:25:53;24.80;68.20
22738;DHT22;11536;50.860;4.286;2023-06-04T15:28:23;24.80;68.50
22738;DHT22;11536;50.860;4.286;2023-06-04T15:30:49;24.80;68.20
22738;DHT22;11536;50.860;4.286;2023-06-04T15:33:18;24.80;67.90
22738;DHT22;11536;50.860;4.286;2023-06-04T15:35:47;24.80;68.60
22738;DHT22;11536;50.860;4.286;2023-06-04T15:38:13;24.80;68.50
22738;DHT22;11536;50.860;4.286;2023-06-04T15:40:42;24.70;68.60
22738;DHT22;11536;50.860;4.286;2023-06-04T15:43:08;24.70;68.90